Time;durP1;ratioP1;P1;durP2;ratioP2;P2;SDS_P1;SDS_P2;PMS_P1;PMS_P2;Temp;Humidity;BMP_temperature;BMP_pressure;BME280_temperature;BME280_humidity;BME280_pressure;Samples;Min_cycle;Max_cycle;Signal;HPM_P1;HPM_P2
2024/01/31 00:01:04;;;;;;;;;50.50;41.50;;;;;10.51;78.75;-19413.06;4992736;28;30952;-85
2024/01/31 00:03:29;;;;;;;;;47.75;40.50;;;;;10.46;78.61;-19410.34;4993431;28;34528;-85
2024/01/31 00:05:54;;;;;;;;;52.25;41.75;;;;;10.41;78.90;-19410.34;4992740;28;28609;-87
2024/01/31 00:08:20;;;;;;;;;46.75;36.75;;;;;10.31;78.90;-19416.97;4992019;28;39481;-86
2024/01/31 00:10:45;;;;;;;;;47.75;39.25;;;;;10.59;78.62;-19495.16;4992317;28;29790;-86
2024/01/31 00:13:10;;;;;;;;;51.25;43.00;;;;;10.38;78.69;-19412.09;4992638;28;29519;-86
2024/01/31 00:15:36;;;;;;;;;53.00;42.00;;;;;10.42;78.78;-19490.81;4992447;28;32300;-86
2024/01/31 00:18:01;;;;;;;;;51.50;42.00;;;;;10.46;78.53;-19408.19;4993088;28;37293;-86
2024/01/31 00:20:26;;;;;;;;;48.50;41.25;;;;;10.35;78.80;-19414.81;4992537;28;28514;-86
2024/01/31 00:22:51;;;;;;;;;50.25;40.00;;;;;10.42;79.03;-19420.09;4992264;28;31826;-85
2024/01/31 00:25:17;;;;;;;;;46.25;37.00;;;;;10.33;79.22;-19424.69;4985906;28;28501;-86
2024/01/31 00:27:42;;;;;;;;;53.75;41.75;;;;;10.35;79.37;-19428.06;4991871;28;28870;-86
2024/01/31 00:30:10;;;;;;;;;46.50;39.00;;;;;10.47;79.69;-19435.25;4992385;28;31318;-85
2024/01/31 00:32:35;;;;;;;;;50.00;39.75;;;;;10.35;79.92;-19440.91;4992308;28;29203;-86
2024/01/31 00:35:01;;;;;;;;;57.50;44.00;;;;;10.45;79.98;-19491.50;4992410;28;28470;-84
2024/01/31 00:37:26;;;;;;;;;51.25;42.50;;;;;10.30;79.97;-19487.59;4993135;28;27940;-85
2024/01/31 00:39:51;;;;;;;;;51.25;41.00;;;;;10.29;80.02;-19487.31;4992238;28;34979;-85
2024/01/31 00:42:17;;;;;;;;;48.25;40.00;;;;;10.53;79.87;-19439.44;4992599;28;29184;-85
2024/01/31 00:44:42;;;;;;;;;41.00;36.00;;;;;10.49;79.94;-19441.19;4992500;28;28748;-85
2024/01/31 00:47:08;;;;;;;;;49.75;39.50;;;;;10.37;80.22;-19448.09;4993138;28;28787;-81
2024/01/31 00:49:34;;;;;;;;;51.25;41.00;;;;;10.14;80.27;-19483.41;4991125;28;28627;-79
2024/01/31 00:52:00;;;;;;;;;49.00;42.00;;;;;10.38;80.34;-19489.75;4975067;28;28494;-78
2024/01/31 00:54:26;;;;;;;;;51.50;41.00;;;;;10.42;80.33;-19450.50;4988231;28;28820;-78
2024/01/31 00:56:51;;;;;;;;;50.25;41.50;;;;;10.30;80.37;-19451.72;4961472;28;28410;-78
2024/01/31 00:59:16;;;;;;;;;50.50;40.25;;;;;10.37;80.39;-19452.00;4991294;28;28676;-77
2024/01/31 06:01:50;;;;;;;;;6.33;6.33;;;;;10.35;70.89;-19489.06;6156676;22;29165;-83
2024/01/31 06:04:15;;;;;;;;;8.00;8.00;;;;;10.29;71.01;-19231.59;4969019;28;32012;-82
2024/01/31 06:06:40;;;;;;;;;8.67;8.67;;;;;10.15;71.33;-19483.66;4987583;28;31133;-81
2024/01/31 06:09:06;;;;;;;;;8.33;8.33;;;;;10.29;71.74;-19248.63;4989579;28;39409;-83
2024/01/31 06:11:31;;;;;;;;;7.33;7.33;;;;;10.02;71.22;-19236.91;4990391;28;30282;-83
2024/01/31 06:13:57;;;;;;;;;9.00;6.67;;;;;9.61;70.28;-19469.38;4990932;28;29281;-82
2024/01/31 06:16:22;;;;;;;;;8.00;6.00;;;;;10.10;70.05;-19482.47;5186447;22;54512;-82
2024/01/31 06:18:47;;;;;;;;;5.33;5.33;;;;;10.21;69.25;-19485.28;4900760;28;28433;-81
2024/01/31 06:21:13;;;;;;;;;6.00;6.00;;;;;10.10;69.24;-19482.47;5152507;23;28490;-82
2024/01/31 06:23:38;;;;;;;;;8.00;8.00;;;;;10.22;69.80;-19485.44;4924956;28;29304;-83
2024/01/31 06:26:04;;;;;;;;;7.67;6.00;;;;;9.55;69.40;-19467.88;5167630;23;28546;-82
2024/01/31 06:28:29;;;;;;;;;9.00;7.33;;;;;9.97;69.21;-19478.81;5007235;28;28608;-81
2024/01/31 06:31:03;;;;;;;;;8.67;8.67;;;;;9.84;69.97;-19208.00;5026257;28;27973;-82
2024/01/31 06:33:31;;;;;;;;;8.33;5.33;;;;;10.04;70.22;-19480.69;5263839;22;30173;-82
2024/01/31 06:35:57;;;;;;;;;10.00;9.00;;;;;10.13;70.29;-19483.13;5021335;28;28585;-81
2024/01/31 06:38:23;;;;;;;;;7.33;6.67;;;;;10.01;70.43;-19480.03;5026887;28;28537;-82
2024/01/31 06:40:49;;;;;;;;;9.00;7.67;;;;;9.80;70.16;-19474.50;5272318;22;28565;-81
2024/01/31 06:43:15;;;;;;;;;7.00;7.00;;;;;9.95;70.50;-19478.41;5020928;28;28673;-83
2024/01/31 06:45:40;;;;;;;;;7.33;7.33;;;;;9.28;70.31;-19460.72;5025937;28;28596;-84
2024/01/31 06:48:08;;;;;;;;;9.67;9.67;;;;;9.93;70.71;-19477.88;5276999;22;38868;-83
2024/01/31 06:50:36;;;;;;;;;8.00;7.00;;;;;9.68;70.96;-19471.25;4940811;28;28635;-83
2024/01/31 06:53:02;;;;;;;;;7.33;7.00;;;;;9.17;71.20;-19457.75;4945589;28;29517;-82
2024/01/31 06:55:27;;;;;;;;;12.33;11.00;;;;;9.65;71.35;-19470.56;4932187;28;44557;-82
2024/01/31 06:57:52;;;;;;;;;8.00;8.00;;;;;9.68;71.43;-19471.25;4935999;28;28513;-82
2024/01/31 07:00:18;;;;;;;;;10.00;8.33;;;;;9.43;71.66;-19464.78;4941923;28;28678;-83
2024/01/31 07:02:43;;;;;;;;;10.33;7.67;;;;;9.23;71.89;-19459.50;4957136;28;31483;-82
2024/01/31 07:05:09;;;;;;;;;10.67;9.67;;;;;9.42;71.65;-19464.50;4951653;28;28489;-83
2024/01/31 07:07:34;;;;;;;;;13.67;12.67;;;;;8.58;71.93;-19442.34;4946256;28;27917;-82
2024/01/31 07:09:59;;;;;;;;;12.00;11.00;;;;;8.87;72.05;-19450.03;4947252;28;28650;-82
2024/01/31 07:12:25;;;;;;;;;13.33;11.67;;;;;9.58;72.02;-19468.56;4948787;28;30431;-82
2024/01/31 07:14:50;;;;;;;;;17.67;13.00;;;;;9.41;72.02;-19464.22;4938274;28;28537;-82
2024/01/31 07:17:16;;;;;;;;;11.00;11.00;;;;;9.05;72.27;-19454.63;4939759;28;28594;-81
2024/01/31 07:19:45;;;;;;;;;30.00;20.67;;;;;9.36;72.42;-19462.88;4944424;28;28505;-81
2024/01/31 07:22:10;;;;;;;;;22.00;20.67;;;;;9.47;72.13;-19259.50;4943630;28;28513;-82
2024/01/31 07:24:36;;;;;;;;;23.00;20.00;;;;;9.32;72.41;-19461.81;4941977;28;28588;-84
2024/01/31 07:27:04;;;;;;;;;18.00;16.67;;;;;9.27;72.48;-19267.94;4940044;28;28662;-82
2024/01/31 07:29:30;;;;;;;;;20.00;15.33;;;;;9.26;72.79;-19460.19;4945878;28;28545;-83
2024/01/31 07:31:55;;;;;;;;;21.00;17.00;;;;;9.19;72.89;-19458.41;4945600;28;29233;-82
2024/01/31 07:34:20;;;;;;;;;15.00;15.00;;;;;8.52;72.93;-19440.59;4944403;28;34850;-83
2024/01/31 07:36:46;;;;;;;;;18.67;14.67;;;;;9.00;73.45;-19453.28;4940220;28;28543;-82
2024/01/31 07:39:11;;;;;;;;;15.33;13.33;;;;;9.09;73.89;-19455.72;4946628;28;28581;-83
2024/01/31 07:41:37;;;;;;;;;16.33;15.00;;;;;8.52;73.75;-19440.72;4945009;28;30324;-85
2024/01/31 07:44:03;;;;;;;;;15.33;14.67;;;;;9.15;74.08;-19457.34;4946004;28;28724;-85
2024/01/31 07:46:40;;;;;;;;;16.67;14.00;;;;;8.26;73.85;-19433.81;4938311;28;29162;-85
2024/01/31 07:49:06;;;;;;;;;16.00;14.33;;;;;8.49;73.86;-19439.91;4995360;28;28473;-84
2024/01/31 07:51:31;;;;;;;;;17.67;17.00;;;;;8.72;73.77;-19445.84;5014686;28;29161;-86
2024/01/31 07:53:56;;;;;;;;;18.00;17.33;;;;;8.82;73.97;-19448.69;5022795;28;28515;-83
2024/01/31 07:56:22;;;;;;;;;15.00;14.00;;;;;8.89;73.90;-19450.44;5013071;28;28542;-84
2024/01/31 07:58:47;;;;;;;;;18.00;13.00;;;;;9.00;73.85;-19453.28;5029942;28;28423;-83
2024/01/31 08:01:12;;;;;;;;;17.33;15.67;;;;;8.67;73.86;-19444.63;5024228;28;28576;-83
2024/01/31 08:03:42;;;;;;;;;14.67;13.67;;;;;9.44;73.99;-19464.91;5028789;28;42541;-83
2024/01/31 08:06:07;;;;;;;;;20.33;14.33;;;;;9.07;74.13;-19455.31;5028235;28;28418;-83
2024/01/31 08:08:33;;;;;;;;;14.67;13.33;;;;;9.33;74.31;-19461.94;5017381;28;29090;-84
2024/01/31 08:10:59;;;;;;;;;14.67;14.67;;;;;9.36;74.58;-19462.88;5028652;28;29199;-84
2024/01/31 08:13:25;;;;;;;;;19.33;15.00;;;;;8.77;74.58;-19447.34;5031457;28;28551;-83
2024/01/31 08:15:51;;;;;;;;;16.67;15.33;;;;;8.88;74.89;-19450.31;5023647;28;29284;-83
2024/01/31 08:18:16;;;;;;;;;15.00;13.33;;;;;9.44;74.65;-19464.91;5020358;28;28511;-82
2024/01/31 08:20:42;;;;;;;;;16.00;15.33;;;;;9.55;75.18;-19467.88;5026025;28;29275;-86
2024/01/31 08:29:54;;;;;;;;;24.33;21.00;;;;;9.22;74.59;-19459.22;5040700;22;28491;-82
2024/01/31 08:32:19;;;;;;;;;24.00;20.67;;;;;9.47;74.75;-19465.72;5028632;28;28566;-83
2024/01/31 08:34:44;;;;;;;;;34.33;30.67;;;;;9.47;74.69;-19465.72;5017416;28;38130;-83
2024/01/31 08:37:10;;;;;;;;;28.00;23.00;;;;;9.54;74.57;-19467.59;5026138;28;28683;-82
2024/01/31 08:39:35;;;;;;;;;32.00;28.67;;;;;9.84;74.57;-19475.44;5022584;28;28538;-84
2024/01/31 08:42:00;;;;;;;;;31.33;28.33;;;;;9.61;74.66;-19469.38;5020467;28;28565;-82
2024/01/31 08:44:26;;;;;;;;;28.33;26.00;;;;;9.29;74.71;-19461.13;5025501;28;28762;-82
2024/01/31 08:46:52;;;;;;;;;26.00;25.33;;;;;9.10;74.59;-19456.00;5020550;28;28537;-83
2024/01/31 08:49:17;;;;;;;;;42.67;33.00;;;;;9.77;74.54;-19473.56;5025746;28;28549;-82
2024/01/31 08:51:42;;;;;;;;;35.00;30.67;;;;;10.11;74.80;-19482.59;5022780;28;28530;-83
2024/01/31 08:54:08;;;;;;;;;30.33;24.33;;;;;9.98;75.16;-19479.22;5027413;28;28518;-83
2024/01/31 08:56:34;;;;;;;;;36.33;26.67;;;;;10.16;75.04;-19483.94;5023211;28;28509;-83
2024/01/31 08:58:59;;;;;;;;;25.67;23.00;;;;;10.54;74.63;-19493.94;5019774;28;28495;-82
2024/01/31 09:01:25;;;;;;;;;20.00;18.33;;;;;10.69;74.24;-19497.84;5010542;28;29113;-83
2024/01/31 09:03:51;;;;;;;;;22.00;18.67;;;;;10.81;74.14;-19500.94;5020157;28;28524;-83
2024/01/31 09:06:16;;;;;;;;;20.00;19.00;;;;;10.76;73.88;-19499.72;5028006;28;35724;-83
2024/01/31 09:08:42;;;;;;;;;21.67;17.00;;;;;10.76;73.88;-19298.41;5017898;28;28513;-83
2024/01/31 09:11:08;;;;;;;;;16.33;15.00;;;;;10.67;74.05;-19302.63;5021301;28;29191;-82
2024/01/31 09:13:33;;;;;;;;;19.33;19.33;;;;;11.12;73.74;-19294.22;5019006;28;28612;-82
2024/01/31 09:15:58;;;;;;;;;15.67;15.33;;;;;11.24;73.59;-19290.81;5023985;28;28507;-83
2024/01/31 09:18:24;;;;;;;;;18.33;17.00;;;;;11.34;73.26;-19282.66;5023877;28;38355;-83
2024/01/31 09:20:49;;;;;;;;;17.00;17.00;;;;;11.31;73.22;-19281.84;5025177;28;29491;-83
2024/01/31 09:23:15;;;;;;;;;16.33;13.33;;;;;11.42;73.49;-19288.09;5002159;28;48411;-85
2024/01/31 09:25:40;;;;;;;;;12.00;12.00;;;;;11.43;73.23;-19281.97;5013294;28;28451;-84
2024/01/31 09:28:05;;;;;;;;;17.00;15.33;;;;;11.38;73.60;-19290.81;5012536;28;43859;-82
2024/01/31 09:30:30;;;;;;;;;11.33;9.67;;;;;11.76;73.12;-19278.69;5003347;28;29597;-83
2024/01/31 09:32:56;;;;;;;;;12.00;9.00;;;;;11.61;72.57;-19265.91;4993546;28;49318;-83
2024/01/31 09:35:21;;;;;;;;;10.33;10.00;;;;;11.86;72.96;-19528.56;5010772;28;28530;-83
2024/01/31 09:37:46;;;;;;;;;6.33;6.33;;;;;11.51;72.19;-19262.78;5011287;28;31229;-83
2024/01/31 09:40:16;;;;;;;;;7.00;7.00;;;;;11.87;72.21;-19257.19;5007528;28;28541;-83
2024/01/31 09:42:44;;;;;;;;;9.33;8.00;;;;;12.12;72.14;-19254.88;5011821;28;28530;-82
2024/01/31 09:45:14;;;;;;;;;9.00;9.00;;;;;12.01;72.14;-19255.28;5004626;28;28557;-83
2024/01/31 09:47:43;;;;;;;;;8.67;8.67;;;;;12.27;72.23;-19257.06;5012481;28;28407;-82
2024/01/31 09:50:08;;;;;;;;;9.67;8.00;;;;;12.30;72.08;-19253.25;5010830;28;28507;-82
2024/01/31 09:52:35;;;;;;;;;8.67;8.00;;;;;12.34;72.19;-19255.84;5010759;28;28165;-82
2024/01/31 09:55:01;;;;;;;;;13.75;8.50;;;;;12.56;72.47;-19261.97;4997477;28;28581;-83
2024/01/31 09:57:27;;;;;;;;;7.00;7.00;;;;;12.56;71.82;-19246.72;5011127;28;28422;-83
2024/01/31 09:59:55;;;;;;;;;9.67;7.33;;;;;12.71;71.70;-19243.84;5012396;28;29641;-83
2024/01/31 10:02:21;;;;;;;;;9.00;8.75;;;;;12.74;71.93;-19248.91;5008409;28;28468;-83
2024/01/31 10:04:48;;;;;;;;;10.50;9.50;;;;;12.94;71.68;-19242.91;5014771;28;28745;-83
2024/01/31 10:07:29;;;;;;;;;10.67;8.00;;;;;-97.90;71.64;-23206.38;5012964;28;28668;-82
2024/01/31 10:09:56;;;;;;;;;10.00;10.00;;;;;12.91;71.64;-19242.09;5001009;28;28531;-83
2024/01/31 10:12:22;;;;;;;;;12.25;11.25;;;;;13.07;71.31;-19233.78;5008857;28;28581;-83
2024/01/31 10:14:48;;;;;;;;;13.25;9.50;;;;;12.87;71.47;-19238.13;5009664;28;28498;-84
2024/01/31 10:17:14;;;;;;;;;13.00;11.67;;;;;13.16;71.17;-19230.63;5006719;28;28739;-84
2024/01/31 10:19:40;;;;;;;;;10.33;8.67;;;;;13.21;70.75;-19239.09;5001134;28;30129;-83
2024/01/31 10:22:06;;;;;;;;;14.00;10.33;;;;;13.07;70.75;-19220.69;5009700;28;28545;-82
2024/01/31 10:24:32;;;;;;;;;9.25;7.50;;;;;-145.03;71.60;-23202.66;4989421;28;28837;-82
2024/01/31 10:26:57;;;;;;;;;8.67;7.67;;;;;12.98;72.21;-19255.28;5006865;28;29108;-83
2024/01/31 10:29:23;;;;;;;;;11.33;11.33;;;;;13.12;72.44;-19260.47;5010109;28;28513;-82
2024/01/31 10:31:50;;;;;;;;;11.67;9.33;;;;;13.24;72.93;-19271.63;5007987;28;28542;-83
2024/01/31 10:34:16;;;;;;;;;13.00;13.00;;;;;13.13;72.99;-19273.13;5015831;28;28556;-83
2024/01/31 10:36:43;;;;;;;;;8.33;8.33;;;;;-97.90;73.22;-23206.38;5013544;28;28810;-83
2024/01/31 10:39:11;;;;;;;;;8.00;8.00;;;;;13.13;73.22;-19278.69;4995943;28;30192;-83
2024/01/31 10:41:40;;;;;;;;;15.00;9.75;;;;;13.13;73.80;-19292.31;5007756;28;28587;-83
2024/01/31 10:44:10;;;;;;;;;22.67;19.00;;;;;12.93;73.66;-19289.19;5007208;28;28566;-83
2024/01/31 10:46:35;;;;;;;;;11.67;10.33;;;;;12.86;73.96;-19296.25;5011855;28;28589;-81
2024/01/31 10:49:01;;;;;;;;;8.00;8.00;;;;;13.22;73.88;-19293.78;5004645;28;28728;-81
2024/01/31 10:51:28;;;;;;;;;13.00;12.67;;;;;-145.03;73.59;-23202.66;5001212;28;28779;-83
2024/01/31 10:53:55;;;;;;;;;9.50;9.50;;;;;12.92;73.80;-19292.72;5005922;28;28483;-84
2024/01/31 10:56:24;;;;;;;;;11.00;10.00;;;;;13.30;73.59;-19286.88;4998614;28;28742;-84
2024/01/31 10:58:50;;;;;;;;;18.67;11.33;;;;;13.10;73.30;-19280.47;5002630;28;29402;-84
2024/01/31 11:01:19;;;;;;;;;11.33;11.33;;;;;13.47;73.82;-19292.03;4998808;23;30018;-84
2024/01/31 11:03:45;;;;;;;;;15.33;14.33;;;;;13.64;73.11;-19275.03;5029368;28;28509;-84
2024/01/31 11:06:11;;;;;;;;;13.33;13.33;;;;;13.59;73.46;-19283.47;5017719;28;28690;-83
2024/01/31 11:08:40;;;;;;;;;11.33;11.33;;;;;-97.90;73.39;-23206.38;5009848;28;29633;-84
2024/01/31 11:11:11;;;;;;;;;9.25;9.25;;;;;13.44;73.39;-19281.97;5028438;28;28538;-84
2024/01/31 11:13:37;;;;;;;;;11.00;8.75;;;;;13.68;73.15;-19275.97;5015336;28;29298;-84
2024/01/31 11:16:04;;;;;;;;;11.00;11.00;;;;;-145.03;72.69;-23202.66;5027215;28;28754;-82
2024/01/31 11:18:30;;;;;;;;;7.33;7.33;;;;;14.49;72.45;-19258.03;5023566;28;28528;-81
2024/01/31 11:20:56;;;;;;;;;9.75;9.00;;;;;-145.03;71.96;-23202.66;5027588;28;28455;-82
2024/01/31 11:23:25;;;;;;;;;13.25;10.00;;;;;14.57;71.62;-19238.81;5019989;28;28515;-83
2024/01/31 11:25:51;;;;;;;;;12.33;11.00;;;;;-97.90;71.46;-23206.38;5016942;28;28617;-83
2024/01/31 11:31:10;;;;;;;;;15.25;10.25;;;;;14.61;71.46;-19235.00;5013068;28;28490;-82
2024/01/31 11:33:36;;;;;;;;;9.67;9.67;;;;;14.54;70.96;-19223.41;5021823;28;28526;-82
2024/01/31 11:36:03;;;;;;;;;13.33;10.00;;;;;-145.03;71.30;-23202.66;4998709;28;28575;-84
2024/01/31 11:38:29;;;;;;;;;11.67;9.67;;;;;14.35;71.06;-19225.88;5016270;28;29502;-84
2024/01/31 11:40:54;;;;;;;;;14.33;11.33;;;;;-97.90;71.54;-23206.38;5018291;28;28550;-85
2024/01/31 11:43:20;;;;;;;;;10.67;10.67;;;;;-97.90;71.54;-23206.38;5026239;28;28612;-82
2024/01/31 11:45:47;;;;;;;;;12.33;11.33;;;;;-145.03;71.54;-23202.66;5025281;28;28599;-85
2024/01/31 11:48:22;;;;;;;;;12.00;9.00;;;;;-97.90;71.85;-23206.38;5023757;28;29589;-88
2024/01/31 11:50:48;;;;;;;;;9.25;9.25;;;;;14.76;71.85;-19243.84;5026019;28;28554;-84
2024/01/31 11:53:13;;;;;;;;;10.67;8.33;;;;;13.95;72.37;-19257.34;5023852;28;28623;-84
2024/01/31 11:55:39;;;;;;;;;13.00;10.00;;;;;13.75;73.20;-19277.06;5013681;28;28581;-84
2024/01/31 11:58:36;;;;;;;;;10.67;8.67;;;;;-97.90;73.49;-23206.38;5011193;28;29856;-88
2024/01/31 12:01:05;;;;;;;;;12.00;9.25;;;;;-97.90;73.49;-23206.38;5021307;28;28657;-83
2024/01/31 12:07:03;;;;;;;;;10.00;9.33;;;;;14.12;73.77;-19289.72;5075696;23;28506;-86
2024/01/31 12:09:28;;;;;;;;;10.33;10.33;;;;;-145.03;73.07;-23202.66;5019496;28;30751;-86
2024/01/31 12:11:54;;;;;;;;;11.33;11.33;;;;;13.99;73.23;-19277.34;5009729;28;29955;-86
2024/01/31 12:14:19;;;;;;;;;25.67;20.33;;;;;13.78;73.16;-19275.84;5010626;28;28673;-87
2024/01/31 12:16:45;;;;;;;;;46.67;36.67;;;;;13.81;73.55;-19285.09;5007580;28;28570;-82
2024/01/31 12:19:18;;;;;;;;;24.67;23.33;;;;;13.37;74.10;-19298.84;5006347;28;30149;-80
2024/01/31 12:21:43;;;;;;;;;12.33;12.33;;;;;13.87;74.16;-19299.38;5012015;28;28568;-81
2024/01/31 12:24:09;;;;;;;;;6.67;5.33;;;;;13.57;74.07;-19297.47;5017245;28;28493;-81
2024/01/31 12:26:34;;;;;;;;;8.67;5.67;;;;;13.76;73.53;-19284.69;5005687;28;28592;-81
2024/01/31 12:29:00;;;;;;;;;14.33;11.33;;;;;-97.90;73.67;-23206.38;5011502;28;28554;-81
2024/01/31 12:31:26;;;;;;;;;16.67;12.00;;;;;13.65;73.67;-19288.09;5013768;28;29144;-81
2024/01/31 12:33:51;;;;;;;;;11.00;10.00;;;;;13.49;73.48;-19284.00;5011226;28;28572;-82
2024/01/31 12:36:17;;;;;;;;;13.00;11.67;;;;;13.35;74.02;-19296.78;5008997;28;28531;-81
2024/01/31 12:38:42;;;;;;;;;11.67;11.67;;;;;13.38;73.99;-19295.97;5011838;28;29208;-81
2024/01/31 12:41:08;;;;;;;;;11.00;11.00;;;;;13.39;74.14;-19299.66;5003543;28;30381;-82
2024/01/31 12:43:33;;;;;;;;;13.67;12.00;;;;;13.41;73.95;-19295.16;5011672;28;28520;-85
2024/01/31 12:45:59;;;;;;;;;14.33;11.67;;;;;13.31;74.08;-19298.41;5002237;28;28656;-85
2024/01/31 12:48:25;;;;;;;;;13.33;13.33;;;;;13.49;73.58;-19286.19;5021575;28;30145;-84
2024/01/31 12:50:55;;;;;;;;;14.00;13.33;;;;;13.61;73.90;-19293.66;5004475;28;29479;-85
2024/01/31 12:53:21;;;;;;;;;12.50;10.75;;;;;13.88;73.10;-19274.63;5021034;28;28888;-84
2024/01/31 12:55:46;;;;;;;;;15.33;12.67;;;;;14.29;72.50;-19259.66;5002647;28;28536;-84
2024/01/31 12:58:11;;;;;;;;;12.67;9.67;;;;;14.27;71.68;-19240.44;5011005;28;36457;-85
2024/01/31 13:00:37;;;;;;;;;16.67;15.67;;;;;14.28;71.42;-19234.59;5011426;28;28592;-85
2024/01/31 13:03:02;;;;;;;;;39.33;31.67;;;;;13.98;70.75;-19219.47;5007491;28;34294;-84
2024/01/31 13:05:27;;;;;;;;;23.67;21.33;;;;;14.81;70.89;-19221.09;5006835;28;28501;-87
2024/01/31 13:07:53;;;;;;;;;19.67;19.33;;;;;15.07;69.78;-19195.06;5005229;28;33898;-86
2024/01/31 13:10:18;;;;;;;;;15.00;12.67;;;;;14.60;69.50;-19189.03;5007868;28;28566;-87
2024/01/31 13:12:43;;;;;;;;;14.67;13.33;;;;;14.48;69.21;-19182.63;5010882;28;28462;-86
2024/01/31 13:15:09;;;;;;;;;13.67;12.00;;;;;14.38;69.68;-19193.53;5009421;28;28773;-86
2024/01/31 13:17:34;;;;;;;;;40.00;33.00;;;;;14.09;69.94;-19200.22;5006103;28;28677;-85
2024/01/31 13:20:01;;;;;;;;;172.00;146.00;;;;;14.32;70.95;-19223.56;5001488;28;29091;-85
2024/01/31 13:22:26;;;;;;;;;41.67;36.33;;;;;13.88;71.32;-19232.97;5011937;28;28788;-85
2024/01/31 13:24:52;;;;;;;;;17.33;13.67;;;;;14.04;70.86;-19221.78;5005296;28;28996;-84
2024/01/31 13:27:17;;;;;;;;;13.00;13.00;;;;;13.76;70.84;-19221.78;5005724;28;28576;-85
2024/01/31 13:29:42;;;;;;;;;12.33;11.00;;;;;13.84;70.81;-19221.09;5023707;28;30128;-85
2024/01/31 13:32:09;;;;;;;;;14.67;12.33;;;;;-97.90;71.19;-23206.38;4998902;28;28922;-84
2024/01/31 13:34:34;;;;;;;;;10.67;10.67;;;;;-97.90;71.19;-23206.38;5002206;28;28603;-85
2024/01/31 13:37:00;;;;;;;;;8.33;8.33;;;;;13.73;71.19;-19230.09;5007992;28;28705;-85
2024/01/31 13:39:26;;;;;;;;;16.00;12.67;;;;;13.26;71.05;-19227.50;5023970;28;28470;-84
2024/01/31 13:41:52;;;;;;;;;12.67;12.67;;;;;13.49;71.29;-19232.97;5004725;28;29669;-83
2024/01/31 13:44:17;;;;;;;;;16.00;13.67;;;;;13.62;71.54;-19238.41;5011510;28;28497;-85
2024/01/31 13:46:43;;;;;;;;;8.33;8.33;;;;;13.57;71.33;-19233.50;5009894;28;28906;-84
2024/01/31 13:49:08;;;;;;;;;8.67;8.67;;;;;13.61;69.81;-19198.06;5009054;28;29937;-84
2024/01/31 13:51:35;;;;;;;;;9.00;8.00;;;;;13.34;69.81;-19198.59;5021301;28;28540;-85
2024/01/31 13:54:00;;;;;;;;;12.33;9.00;;;;;13.36;68.98;-19178.94;5015623;28;28642;-85
2024/01/31 13:56:26;;;;;;;;;7.67;7.67;;;;;13.15;68.52;-19168.56;5004108;28;29754;-86
2024/01/31 13:58:51;;;;;;;;;12.00;10.67;;;;;13.26;67.75;-19150.13;5002702;28;35929;-86
2024/01/31 14:01:16;;;;;;;;;10.67;10.67;;;;;13.07;68.02;-19156.97;5006862;28;28469;-85
2024/01/31 14:03:42;;;;;;;;;11.33;10.33;;;;;13.27;67.82;-19152.03;5004500;28;28579;-84
2024/01/31 14:06:07;;;;;;;;;11.33;10.33;;;;;13.54;67.28;-19138.91;5005381;28;41117;-83
2024/01/31 14:08:32;;;;;;;;;8.33;8.33;;;;;13.05;66.83;-19129.06;5009312;28;28608;-84
2024/01/31 14:10:58;;;;;;;;;10.67;9.67;;;;;13.72;66.28;-19115.25;5003947;28;28501;-84
2024/01/31 14:13:23;;;;;;;;;14.00;14.00;;;;;13.81;66.14;-19111.84;5003747;28;28572;-83
2024/01/31 14:15:48;;;;;;;;;7.00;6.33;;;;;13.65;66.31;-19115.69;5006996;28;33596;-83
2024/01/31 14:18:14;;;;;;;;;8.33;8.00;;;;;13.81;66.08;-19110.34;5005186;28;29587;-83
2024/01/31 14:20:39;;;;;;;;;7.00;7.00;;;;;13.77;65.69;-19101.19;5010083;28;33277;-84
2024/01/31 14:23:05;;;;;;;;;6.67;6.67;;;;;13.60;65.88;-19105.97;4998386;28;28597;-84
2024/01/31 14:25:31;;;;;;;;;6.33;6.33;;;;;13.68;65.60;-19099.13;4999076;28;28529;-83
2024/01/31 14:27:56;;;;;;;;;10.67;10.33;;;;;13.58;65.84;-19104.88;5006303;28;28662;-83
2024/01/31 14:30:21;;;;;;;;;12.00;9.33;;;;;13.38;65.37;-19094.19;5006981;28;28603;-85
2024/01/31 14:32:47;;;;;;;;;5.00;5.00;;;;;13.49;65.63;-19100.06;5006016;28;28491;-85
2024/01/31 14:35:12;;;;;;;;;4.00;4.00;;;;;13.44;65.77;-19103.63;4999455;28;43523;-84
2024/01/31 14:37:37;;;;;;;;;4.00;4.00;;;;;13.09;65.70;-19102.25;5002028;28;28474;-84
2024/01/31 14:40:03;;;;;;;;;5.33;3.00;;;;;13.46;65.61;-19099.66;5019584;28;28692;-85
2024/01/31 14:42:28;;;;;;;;;4.00;4.00;;;;;13.39;65.18;-19089.66;5002538;28;28714;-84
2024/01/31 14:44:54;;;;;;;;;3.00;3.00;;;;;13.33;65.63;-19100.22;5009340;28;29593;-85
2024/01/31 14:47:19;;;;;;;;;3.00;3.00;;;;;13.12;65.26;-19092.00;5017365;28;28456;-84
2024/01/31 14:49:44;;;;;;;;;5.33;2.33;;;;;13.38;64.98;-19085.16;4998881;28;28877;-84
2024/01/31 14:52:09;;;;;;;;;3.67;2.33;;;;;13.25;65.17;-19565.19;5000553;28;28504;-83
2024/01/31 14:54:35;;;;;;;;;2.00;2.00;;;;;13.35;65.47;-19096.66;5002700;28;44167;-83
2024/01/31 14:57:01;;;;;;;;;3.67;3.33;;;;;13.25;65.18;-19565.19;5006000;28;28813;-83
2024/01/31 14:59:26;;;;;;;;;3.00;3.00;;;;;13.18;65.62;-19100.22;5007443;28;29406;-83
2024/01/31 15:01:52;;;;;;;;;3.33;3.00;;;;;13.01;65.20;-19090.63;5008675;28;29067;-83
2024/01/31 15:04:17;;;;;;;;;3.00;2.67;;;;;13.28;65.38;-19094.47;5009202;28;29389;-84
2024/01/31 15:06:43;;;;;;;;;4.33;3.33;;;;;13.22;65.26;-19091.88;5022717;28;29155;-84
2024/01/31 15:09:11;;;;;;;;;2.67;2.67;;;;;13.09;65.06;-19087.34;5006142;28;28578;-85
2024/01/31 15:11:37;;;;;;;;;3.00;3.00;;;;;13.06;65.11;-19088.44;5005831;28;28751;-85
2024/01/31 15:14:04;;;;;;;;;5.33;5.33;;;;;12.81;65.13;-19089.41;5002964;28;28640;-86
2024/01/31 15:16:31;;;;;;;;;5.00;5.00;;;;;12.87;64.86;-19082.81;4998834;28;29953;-84
2024/01/31 15:18:57;;;;;;;;;5.00;3.25;;;;;12.96;65.46;-19096.94;5004468;28;28540;-85
2024/01/31 15:21:23;;;;;;;;;3.33;3.00;;;;;12.89;65.12;-19089.13;5008214;28;28532;-85
2024/01/31 15:23:49;;;;;;;;;5.33;3.00;;;;;12.74;65.17;-19090.34;5009350;28;28559;-85
2024/01/31 15:26:15;;;;;;;;;3.33;3.33;;;;;12.82;65.32;-19093.78;4999537;28;28809;-84
2024/01/31 15:28:40;;;;;;;;;4.00;4.00;;;;;12.64;65.49;-19098.03;5005119;28;28456;-84
2024/01/31 15:31:06;;;;;;;;;5.00;4.67;;;;;12.68;65.70;-19103.09;5008913;28;28599;-84
2024/01/31 15:33:31;;;;;;;;;5.67;3.67;;;;;12.88;65.88;-19106.66;5008914;28;28995;-85
2024/01/31 15:35:57;;;;;;;;;3.67;3.33;;;;;12.62;65.65;-19101.72;5007740;28;28531;-84
2024/01/31 15:38:23;;;;;;;;;6.67;5.00;;;;;12.93;65.49;-19097.47;5004584;28;28563;-85
2024/01/31 15:40:50;;;;;;;;;3.00;3.00;;;;;12.57;65.71;-19103.22;5006988;28;28462;-84
2024/01/31 15:43:18;;;;;;;;;6.33;4.67;;;;;12.92;65.95;-19108.56;5005759;28;28456;-83
2024/01/31 15:45:44;;;;;;;;;4.33;4.33;;;;;12.85;65.93;-19108.00;5008581;28;28497;-84
2024/01/31 15:48:09;;;;;;;;;8.33;7.67;;;;;12.85;65.87;-19106.66;5007444;28;28945;-84
2024/01/31 15:50:35;;;;;;;;;5.00;4.00;;;;;12.72;66.01;-19110.34;5006860;28;28465;-84
2024/01/31 15:53:01;;;;;;;;;3.67;3.67;;;;;12.79;66.28;-19116.50;5002100;28;28466;-85
2024/01/31 15:55:26;;;;;;;;;4.00;4.00;;;;;12.89;66.33;-19117.59;4998872;28;28602;-84
2024/01/31 15:57:52;;;;;;;;;5.33;5.33;;;;;12.87;66.33;-19117.47;5008404;28;28572;-84
2024/01/31 16:00:18;;;;;;;;;5.33;5.33;;;;;12.81;65.35;-19094.47;5009144;28;28569;-83
2024/01/31 16:02:44;;;;;;;;;4.67;3.33;;;;;12.79;66.18;-19113.91;5000369;28;29574;-81
2024/01/31 16:05:10;;;;;;;;;5.67;4.00;;;;;12.83;66.59;-19123.75;5008093;28;28611;-81
2024/01/31 16:07:36;;;;;;;;;9.67;9.67;;;;;12.92;66.50;-19121.41;5017827;28;28521;-85
2024/01/31 16:10:02;;;;;;;;;8.00;7.67;;;;;12.44;66.51;-19122.09;5004772;28;28573;-84
2024/01/31 16:12:27;;;;;;;;;8.33;7.33;;;;;12.72;66.60;-19551.19;5007381;28;29197;-85
2024/01/31 16:14:52;;;;;;;;;10.33;8.33;;;;;12.75;66.86;-19129.91;5007312;28;32297;-85
2024/01/31 16:17:18;;;;;;;;;11.00;7.67;;;;;12.65;67.03;-19134.28;4996048;28;28806;-84
2024/01/31 16:19:44;;;;;;;;;21.00;16.67;;;;;12.50;67.06;-19135.22;5008411;28;28941;-85
2024/01/31 16:22:09;;;;;;;;;11.33;9.67;;;;;12.50;67.18;-19137.97;5019838;28;28455;-86
2024/01/31 16:24:34;;;;;;;;;12.33;12.33;;;;;12.27;67.26;-19140.28;4998455;28;28731;-84